createdAt,value
2018-06-24T00:00:03.123Z,13.6
2018-06-24T00:15:02.436Z,13.6
2018-06-24T00:30:02.858Z,13.6
2018-06-24T00:45:03.330Z,13.6
2018-06-24T01:00:03.049Z,13.6
2018-06-24T01:15:02.506Z,13.6
2018-06-24T01:30:02.889Z,13.5
2018-06-24T01:45:03.229Z,13.5
2018-06-24T02:00:02.535Z,13.5
2018-06-24T02:15:03.128Z,13.5
2018-06-24T02:30:02.696Z,13.4
2018-06-24T02:45:02.982Z,13.4
2018-06-24T03:00:02.349Z,13.4
2018-06-24T03:15:02.694Z,13.4
2018-06-24T03:30:03.113Z,13.4
2018-06-24T03:45:02.454Z,13.4
2018-06-24T04:00:02.798Z,13.4
2018-06-24T04:15:03.119Z,13.4
2018-06-24T04:30:02.715Z,13.4
2018-06-24T04:45:03.151Z,13.4
2018-06-24T05:00:02.526Z,13.4
2018-06-24T05:15:02.901Z,13.4
2018-06-24T05:30:02.303Z,13.4
2018-06-24T05:45:02.629Z,13.4
2018-06-24T06:00:02.938Z,13.4
2018-06-24T06:15:03.322Z,13.4
2018-06-24T06:30:02.940Z,13.4
2018-06-24T06:45:02.436Z,13.4
2018-06-24T07:00:02.783Z,13.5
2018-06-24T07:15:03.194Z,13.5
2018-06-24T07:30:02.604Z,13.5
2018-06-24T07:45:02.881Z,13.6
2018-06-24T08:00:03.267Z,13.6
2018-06-24T08:15:02.615Z,13.6
2018-06-24T08:30:02.996Z,13.6
2018-06-24T08:45:02.354Z,13.6
2018-06-24T09:00:02.667Z,13.6
2018-06-24T09:15:02.988Z,13.6
2018-06-24T09:30:02.393Z,13.6
2018-06-24T09:45:02.675Z,13.7
2018-06-24T10:00:02.990Z,13.8
2018-06-24T10:15:02.511Z,13.8
2018-06-24T10:30:02.946Z,13.9
2018-06-24T10:45:03.460Z,13.9
2018-06-24T11:00:02.929Z,14
2018-06-24T11:15:03.408Z,14
2018-06-24T11:30:02.769Z,14.1
2018-06-24T11:45:03.114Z,14.1
2018-06-24T12:00:02.487Z,14.2
2018-06-24T12:15:02.777Z,14.2
2018-06-24T12:30:03.226Z,14.2
2018-06-24T12:45:02.538Z,14.2
2018-06-24T13:00:03.773Z,14.3
2018-06-24T13:15:02.632Z,14.4
2018-06-24T13:30:03.002Z,14.4
2018-06-24T13:45:02.362Z,14.5
2018-06-24T14:00:02.664Z,14.5
2018-06-24T14:15:02.986Z,14.5
2018-06-24T14:30:02.389Z,14.6
2018-06-24T14:45:02.698Z,14.6
2018-06-24T15:00:03.627Z,14.6
2018-06-24T15:15:03.055Z,14.6
2018-06-24T15:30:02.465Z,14.6
2018-06-24T15:45:02.788Z,14.7
2018-06-24T16:00:03.120Z,14.7
2018-06-24T16:15:02.450Z,14.7
2018-06-24T16:30:02.861Z,14.7
2018-06-24T16:45:03.239Z,14.7
2018-06-24T17:00:02.699Z,14.7
2018-06-24T17:15:03.102Z,14.7
2018-06-24T17:30:02.956Z,14.7
2018-06-24T17:45:03.493Z,14.7
2018-06-24T18:00:02.786Z,14.7
2018-06-24T18:15:03.110Z,14.7
2018-06-24T18:30:02.513Z,14.7
2018-06-24T18:45:02.838Z,14.6
2018-06-24T19:00:03.213Z,14.6
2018-06-24T19:15:02.553Z,14.6
2018-06-24T19:30:02.949Z,14.6
2018-06-24T19:45:03.426Z,14.6
2018-06-24T20:00:02.745Z,14.6
2018-06-24T20:15:03.098Z,14.6
2018-06-24T20:30:02.497Z,14.6
2018-06-24T20:45:02.805Z,14.5
2018-06-24T21:00:03.127Z,14.5
2018-06-24T21:15:02.492Z,14.5
2018-06-24T21:30:02.867Z,14.4
2018-06-24T21:45:03.221Z,14.4
2018-06-24T22:00:02.544Z,14.4
2018-06-24T22:15:02.860Z,14.4
2018-06-24T22:30:03.296Z,14.4
2018-06-24T22:45:02.666Z,14.3
2018-06-24T23:00:02.962Z,14.3
2018-06-24T23:15:02.283Z,14.2
2018-06-24T23:30:02.687Z,14.2
2018-06-24T23:45:02.993Z,14.2
